McCartys, New Mexico
Current Conditions -  °F | °C
As of 9:37 PM on Friday 31 Oct 2014 (Local Time) from KGNT Reporting Station
Scattered Clouds Scattered Clouds  
Wind Chill: 52°   Ceiling: Unl
Heat Index: 52°   Visibility: 10mi
Dew Point: 39°   Wind: 15mph
Humidity: 62%   Direction: 160°SSE
Pressure: 30.24"   Gusts: 20mph
Location:  35.0816°N, 107.597°W
Report Text: KGNT 010337Z AUTO 16013G17KT 10SM SCT090 11/04 A3024 RMK AO2
Loading
Personal Weather Stations






























Interactive Weather Map
Tropical Storm Tracking
New forecast layout! Learn more

10-Day Weather Forecast

Advertisements
Track Severe Weather on mobile